createdAt,value
2022-08-20T00:00:27.307Z,18.10
2022-08-20T00:03:06.545Z,18.10
2022-08-20T00:05:37.044Z,18.20
2022-08-20T00:08:06.885Z,18.10
2022-08-20T00:10:34.478Z,18.20
2022-08-20T00:13:01.430Z,18.10
2022-08-20T00:15:30.358Z,18.10
2022-08-20T00:17:57.593Z,18.10
2022-08-20T00:20:27.093Z,18.10
2022-08-20T00:22:54.128Z,18.10
2022-08-20T00:25:20.890Z,18.00
2022-08-20T00:27:47.674Z,18.00
2022-08-20T00:30:14.578Z,18.00
2022-08-20T00:32:50.505Z,18.00
2022-08-20T00:35:18.405Z,18.00
2022-08-20T00:37:45.223Z,17.90
2022-08-20T00:40:22.559Z,18.00
2022-08-20T00:42:53.085Z,17.90
2022-08-20T00:45:20.262Z,17.90
2022-08-20T00:47:51.351Z,17.90
2022-08-20T00:50:20.746Z,17.90
2022-08-20T00:52:50.184Z,17.90
2022-08-20T00:55:18.452Z,17.90
2022-08-20T00:57:59.875Z,17.90
2022-08-20T01:00:34.095Z,17.90
2022-08-20T01:03:01.014Z,17.90
2022-08-20T01:05:29.577Z,17.90
2022-08-20T01:07:57.032Z,17.90
2022-08-20T01:10:27.696Z,17.90
2022-08-20T01:12:59.206Z,17.90
2022-08-20T01:15:30.994Z,17.90
2022-08-20T01:17:58.774Z,17.80
2022-08-20T01:20:28.377Z,17.80
2022-08-20T01:23:26.732Z,17.90
2022-08-20T01:26:00.554Z,17.80
2022-08-20T01:28:34.642Z,17.80
2022-08-20T01:31:01.708Z,17.80
2022-08-20T01:33:28.438Z,17.80
2022-08-20T01:35:55.418Z,17.80
2022-08-20T01:38:22.196Z,17.80
2022-08-20T01:41:08.072Z,17.80
2022-08-20T01:43:37.172Z,17.80
2022-08-20T01:46:05.024Z,17.70
2022-08-20T01:48:32.656Z,17.70
2022-08-20T01:51:06.153Z,17.80
2022-08-20T01:53:38.565Z,17.70
2022-08-20T01:56:07.018Z,17.70
2022-08-20T01:58:34.948Z,17.70
2022-08-20T02:01:01.728Z,17.70
2022-08-20T02:03:28.622Z,17.80
2022-08-20T02:05:55.512Z,17.80
2022-08-20T02:08:22.235Z,17.80
2022-08-20T02:10:49.065Z,17.80
2022-08-20T02:13:16.515Z,17.90
2022-08-20T02:15:43.346Z,17.90
2022-08-20T02:18:13.218Z,17.90
2022-08-20T02:20:40.194Z,17.90
2022-08-20T02:23:06.902Z,17.90
2022-08-20T02:25:35.113Z,17.90
2022-08-20T02:28:03.838Z,17.90
2022-08-20T02:30:35.661Z,17.90
2022-08-20T02:33:04.201Z,17.90
2022-08-20T02:35:32.425Z,17.90
2022-08-20T02:38:00.628Z,17.90
2022-08-20T02:40:31.016Z,17.90
2022-08-20T02:42:59.107Z,17.90
2022-08-20T02:45:25.870Z,17.90
2022-08-20T02:47:54.288Z,17.90
2022-08-20T02:50:21.214Z,17.90
2022-08-20T02:52:51.626Z,17.90
2022-08-20T02:55:27.274Z,17.90
2022-08-20T02:57:57.493Z,17.90
2022-08-20T03:00:26.078Z,17.90
2022-08-20T03:02:52.813Z,17.90
2022-08-20T03:05:19.718Z,17.90
2022-08-20T03:07:48.333Z,17.90
2022-08-20T03:10:15.221Z,17.90
2022-08-20T03:12:42.233Z,17.90
2022-08-20T03:15:17.394Z,17.90
2022-08-20T03:17:45.072Z,17.90
2022-08-20T03:20:11.830Z,17.90
2022-08-20T03:22:38.559Z,17.90
2022-08-20T03:25:05.847Z,17.90
2022-08-20T03:27:36.321Z,17.90
2022-08-20T03:30:05.431Z,17.90
2022-08-20T03:32:32.176Z,17.80
2022-08-20T03:34:58.900Z,17.90
2022-08-20T03:37:25.645Z,17.90
2022-08-20T03:39:52.728Z,17.90
2022-08-20T03:42:19.479Z,17.90
2022-08-20T03:44:46.420Z,17.80
2022-08-20T03:47:13.101Z,17.80
2022-08-20T03:49:39.810Z,17.80
2022-08-20T03:52:06.682Z,17.80
2022-08-20T03:54:33.543Z,17.80
2022-08-20T03:57:01.430Z,17.80
2022-08-20T03:59:28.337Z,17.80
2022-08-20T04:01:55.198Z,17.90
2022-08-20T04:04:22.197Z,17.80
2022-08-20T04:06:48.998Z,17.80
2022-08-20T04:09:15.695Z,17.90
2022-08-20T04:11:42.616Z,17.90
2022-08-20T04:14:10.459Z,17.90
2022-08-20T04:16:38.399Z,17.90
2022-08-20T04:19:06.640Z,17.90
2022-08-20T04:21:34.794Z,17.90
2022-08-20T04:24:03.012Z,17.90
2022-08-20T04:26:29.959Z,17.80
2022-08-20T04:28:56.917Z,17.80
2022-08-20T04:31:33.131Z,17.80
2022-08-20T04:34:03.282Z,17.90
2022-08-20T04:36:30.332Z,17.90
2022-08-20T04:38:57.048Z,17.90
2022-08-20T04:41:24.293Z,17.80
2022-08-20T04:43:55.118Z,17.90
2022-08-20T04:46:23.584Z,17.90
2022-08-20T04:48:50.718Z,17.90
2022-08-20T04:51:18.307Z,17.90
2022-08-20T04:53:51.962Z,17.90
2022-08-20T04:56:24.615Z,17.90
2022-08-20T04:58:52.400Z,17.90
2022-08-20T05:01:19.290Z,18.00
2022-08-20T05:03:47.802Z,17.90
2022-08-20T05:06:16.065Z,18.00
2022-08-20T05:08:42.787Z,18.00
2022-08-20T05:11:34.735Z,18.00
2022-08-20T05:13:56.417Z,18.00
2022-08-20T05:16:24.646Z,18.00
2022-08-20T05:18:52.540Z,18.00
2022-08-20T05:21:20.356Z,18.10
2022-08-20T05:23:47.253Z,18.10
2022-08-20T05:26:16.016Z,18.10
2022-08-20T05:28:53.852Z,18.10
2022-08-20T05:31:31.258Z,18.10
2022-08-20T05:34:04.013Z,18.20
2022-08-20T05:36:30.892Z,18.20
2022-08-20T05:38:57.650Z,18.20
2022-08-20T05:41:29.007Z,18.20
2022-08-20T05:43:57.477Z,18.20
2022-08-20T05:46:24.229Z,18.20
2022-08-20T05:48:51.012Z,18.20
2022-08-20T05:51:17.930Z,18.20
2022-08-20T05:53:44.840Z,18.20
2022-08-20T05:56:11.585Z,18.20
2022-08-20T05:58:38.551Z,18.20
2022-08-20T06:01:05.607Z,18.20
2022-08-20T06:03:50.734Z,18.20
2022-08-20T06:06:18.635Z,18.20
2022-08-20T06:09:04.599Z,18.30
2022-08-20T06:11:35.098Z,18.30
2022-08-20T06:14:03.965Z,18.30
2022-08-20T06:16:30.992Z,18.30
2022-08-20T06:18:58.583Z,18.30
2022-08-20T06:21:25.688Z,18.30
2022-08-20T06:24:00.667Z,18.30
2022-08-20T06:26:29.821Z,18.40
2022-08-20T06:28:57.764Z,18.40
2022-08-20T06:31:25.012Z,18.50
2022-08-20T06:33:51.807Z,18.50
2022-08-20T06:36:19.166Z,18.60
2022-08-20T06:38:46.626Z,18.60
2022-08-20T06:41:14.014Z,18.70
2022-08-20T06:43:40.923Z,18.60
2022-08-20T06:46:08.195Z,18.70
2022-08-20T06:48:35.018Z,18.60
2022-08-20T06:51:01.798Z,18.60
2022-08-20T06:53:29.075Z,18.60
2022-08-20T06:55:56.798Z,18.60
2022-08-20T06:58:37.895Z,18.60
2022-08-20T07:01:10.349Z,18.60
2022-08-20T07:03:42.031Z,18.50
2022-08-20T07:06:21.288Z,18.40
2022-08-20T07:08:48.136Z,18.30
2022-08-20T07:11:14.841Z,18.30
2022-08-20T07:13:42.029Z,18.20
2022-08-20T07:16:08.898Z,18.00
2022-08-20T07:18:36.402Z,18.00
2022-08-20T07:21:03.178Z,18.00
2022-08-20T07:23:31.423Z,17.90
2022-08-20T07:25:58.427Z,17.90
2022-08-20T07:28:28.669Z,17.90
2022-08-20T07:31:15.958Z,17.90
2022-08-20T07:33:44.373Z,17.90
2022-08-20T07:36:11.808Z,17.90
2022-08-20T07:38:38.572Z,17.90
2022-08-20T07:41:14.752Z,17.90
2022-08-20T07:43:42.460Z,18.00
2022-08-20T07:46:09.873Z,18.00
2022-08-20T07:48:39.921Z,18.00
2022-08-20T07:51:07.268Z,18.10
2022-08-20T07:53:36.219Z,18.10
2022-08-20T07:56:06.044Z,18.20
2022-08-20T07:58:33.414Z,18.30
2022-08-20T08:01:00.672Z,18.40
2022-08-20T08:03:40.644Z,18.40
2022-08-20T08:06:17.191Z,18.50
2022-08-20T08:08:55.465Z,18.50
2022-08-20T08:11:22.252Z,18.50
2022-08-20T08:13:49.086Z,18.50
2022-08-20T08:16:15.805Z,18.60
2022-08-20T08:18:48.838Z,18.60
2022-08-20T08:21:16.519Z,18.60
2022-08-20T08:23:44.548Z,18.60
2022-08-20T08:26:17.868Z,18.70
2022-08-20T08:28:46.083Z,18.70
2022-08-20T08:31:12.862Z,18.80
2022-08-20T08:33:40.749Z,18.80
2022-08-20T08:36:10.786Z,18.80
2022-08-20T08:38:38.648Z,18.70
2022-08-20T08:41:22.500Z,18.70
2022-08-20T08:43:53.200Z,18.70
2022-08-20T08:46:24.023Z,18.70
2022-08-20T08:48:53.479Z,18.60
2022-08-20T08:51:56.163Z,18.50
2022-08-20T08:54:25.658Z,18.50
2022-08-20T08:56:52.861Z,18.50
2022-08-20T08:59:20.059Z,18.50
2022-08-20T09:01:56.141Z,18.60
2022-08-20T09:04:35.433Z,18.60
2022-08-20T09:07:02.862Z,18.70
2022-08-20T09:09:33.789Z,18.70
2022-08-20T09:12:07.904Z,18.80
2022-08-20T09:14:34.729Z,18.90
2022-08-20T09:17:01.546Z,18.90
2022-08-20T09:19:28.465Z,18.90
2022-08-20T09:21:55.279Z,19.00
2022-08-20T09:24:22.080Z,19.00
2022-08-20T09:26:49.018Z,19.00
2022-08-20T09:29:16.567Z,19.10
2022-08-20T09:31:43.659Z,19.10
2022-08-20T09:34:11.943Z,19.10
2022-08-20T09:36:38.736Z,19.20
2022-08-20T09:39:05.484Z,19.20
2022-08-20T09:41:33.701Z,19.20
2022-08-20T09:44:01.419Z,19.10
2022-08-20T09:46:28.303Z,19.20
2022-08-20T09:48:55.418Z,19.20
2022-08-20T09:51:22.408Z,19.20
2022-08-20T09:53:49.207Z,19.20
2022-08-20T09:56:15.981Z,19.20
2022-08-20T09:58:45.432Z,19.20
2022-08-20T10:01:15.001Z,19.20
2022-08-20T10:03:42.679Z,19.30
2022-08-20T10:06:11.029Z,19.20
2022-08-20T10:08:38.344Z,19.30
2022-08-20T10:11:05.215Z,19.20
2022-08-20T10:13:32.036Z,19.20
2022-08-20T10:15:58.757Z,19.20
2022-08-20T10:18:25.512Z,19.30
2022-08-20T10:20:52.307Z,19.30
2022-08-20T10:23:19.075Z,19.30
2022-08-20T10:25:45.819Z,19.40
2022-08-20T10:28:12.550Z,19.40
2022-08-20T10:30:39.357Z,19.40
2022-08-20T10:33:06.537Z,19.50
2022-08-20T10:35:33.862Z,19.40
2022-08-20T10:38:00.603Z,19.40
2022-08-20T10:40:27.332Z,19.50
2022-08-20T10:42:54.184Z,19.40
2022-08-20T10:45:20.917Z,19.50
2022-08-20T10:47:47.721Z,19.50
2022-08-20T10:50:16.068Z,19.50
2022-08-20T10:52:42.942Z,19.40
2022-08-20T10:55:09.909Z,19.40
2022-08-20T10:57:39.478Z,19.40
2022-08-20T11:00:09.510Z,19.50
2022-08-20T11:02:36.478Z,19.50
2022-08-20T11:05:03.447Z,19.60
2022-08-20T11:07:50.624Z,19.60
2022-08-20T11:10:20.761Z,19.70
2022-08-20T11:12:47.798Z,19.80
2022-08-20T11:15:15.028Z,19.90
2022-08-20T11:17:42.702Z,19.90
2022-08-20T11:20:10.629Z,19.90
2022-08-20T11:22:37.540Z,20.00
2022-08-20T11:25:05.509Z,20.10
2022-08-20T11:27:41.949Z,20.10
2022-08-20T11:30:12.067Z,20.10
2022-08-20T11:32:38.830Z,20.10
2022-08-20T11:35:24.501Z,20.10
2022-08-20T11:37:53.732Z,20.10
2022-08-20T11:40:20.817Z,20.10
2022-08-20T11:43:11.038Z,20.10
2022-08-20T11:45:37.666Z,20.00
2022-08-20T11:48:04.842Z,20.00
2022-08-20T11:50:31.651Z,20.00
2022-08-20T11:52:58.591Z,19.90
2022-08-20T11:55:28.968Z,19.90
2022-08-20T11:57:59.790Z,19.90
2022-08-20T12:00:32.409Z,19.90
2022-08-20T12:03:00.972Z,19.90
2022-08-20T12:05:29.655Z,19.80
2022-08-20T12:07:57.372Z,19.80
2022-08-20T12:10:26.343Z,19.80
2022-08-20T12:12:53.227Z,19.80
2022-08-20T12:15:20.195Z,19.70
2022-08-20T12:17:46.921Z,19.70
2022-08-20T12:20:14.193Z,19.80
2022-08-20T12:22:41.130Z,19.80
2022-08-20T12:25:08.561Z,19.80
2022-08-20T12:27:35.898Z,19.70
2022-08-20T12:30:08.061Z,19.70
2022-08-20T12:32:35.476Z,19.60
2022-08-20T12:35:02.240Z,19.70
2022-08-20T12:37:29.713Z,19.60
2022-08-20T12:39:58.524Z,19.60
2022-08-20T12:42:25.842Z,19.60
2022-08-20T12:44:52.815Z,19.50
2022-08-20T12:47:24.807Z,19.50
2022-08-20T12:49:56.435Z,19.50
2022-08-20T12:52:23.651Z,19.50
2022-08-20T12:54:50.453Z,19.60
2022-08-20T12:57:38.368Z,19.50
2022-08-20T13:00:11.249Z,19.60
2022-08-20T13:02:38.767Z,19.50
2022-08-20T13:05:06.091Z,19.50
2022-08-20T13:07:33.124Z,19.50
2022-08-20T13:10:00.088Z,19.40
2022-08-20T13:12:26.973Z,19.40
2022-08-20T13:14:53.784Z,19.40
2022-08-20T13:17:31.826Z,19.40
2022-08-20T13:20:08.051Z,19.40
2022-08-20T13:22:35.194Z,19.40
2022-08-20T13:25:01.923Z,19.40
2022-08-20T13:27:28.672Z,19.50
2022-08-20T13:29:58.634Z,19.60
2022-08-20T13:32:25.939Z,19.60
2022-08-20T13:34:52.690Z,19.60
2022-08-20T13:37:25.121Z,19.70
2022-08-20T13:39:55.391Z,19.70
2022-08-20T13:42:22.329Z,19.70
2022-08-20T13:44:49.281Z,19.70
2022-08-20T13:47:36.915Z,19.70
2022-08-20T13:50:26.338Z,19.80
2022-08-20T13:52:53.144Z,19.70
2022-08-20T13:55:24.351Z,19.80
2022-08-20T13:57:51.272Z,19.80
2022-08-20T14:00:20.864Z,19.80
2022-08-20T14:02:47.656Z,19.80
2022-08-20T14:05:17.794Z,19.90
2022-08-20T14:07:46.259Z,19.90
2022-08-20T14:10:19.825Z,19.90
2022-08-20T14:12:46.665Z,19.90
2022-08-20T14:15:13.540Z,19.90
2022-08-20T14:17:42.020Z,19.90
2022-08-20T14:20:11.555Z,19.90
2022-08-20T14:22:38.310Z,19.90
2022-08-20T14:25:06.231Z,19.90
2022-08-20T14:27:33.801Z,19.90
2022-08-20T14:30:00.701Z,19.90
2022-08-20T14:32:27.670Z,20.00
2022-08-20T14:34:54.813Z,20.00
2022-08-20T14:37:27.726Z,19.90
2022-08-20T14:39:56.991Z,19.90
2022-08-20T14:42:24.144Z,20.00
2022-08-20T14:44:51.081Z,20.00
2022-08-20T14:47:19.626Z,19.90
2022-08-20T14:49:47.266Z,19.90
2022-08-20T14:52:14.476Z,19.90
2022-08-20T14:54:41.427Z,20.00
2022-08-20T14:57:13.020Z,20.00
2022-08-20T14:59:40.895Z,20.00
2022-08-20T15:02:08.764Z,20.00
2022-08-20T15:04:35.670Z,20.00
2022-08-20T15:07:08.093Z,20.00
2022-08-20T15:09:39.781Z,20.00
2022-08-20T15:12:06.656Z,19.90
2022-08-20T15:14:33.604Z,19.90
2022-08-20T15:17:00.379Z,19.90
2022-08-20T15:19:27.792Z,19.90
2022-08-20T15:21:54.521Z,19.90
2022-08-20T15:24:21.758Z,19.90
2022-08-20T15:26:48.531Z,19.90
2022-08-20T15:29:23.136Z,19.90
2022-08-20T15:31:50.755Z,19.90
2022-08-20T15:34:17.817Z,19.80
2022-08-20T15:36:45.421Z,19.70
2022-08-20T15:39:12.167Z,19.70
2022-08-20T15:41:38.913Z,19.80
2022-08-20T15:44:05.687Z,19.80
2022-08-20T15:46:36.148Z,19.70
2022-08-20T15:49:04.352Z,19.60
2022-08-20T15:51:38.219Z,19.60
2022-08-20T15:54:22.261Z,19.60
2022-08-20T15:57:10.264Z,19.70
2022-08-20T15:59:42.743Z,19.70
2022-08-20T16:02:32.023Z,19.70
2022-08-20T16:05:01.612Z,19.70
2022-08-20T16:07:43.810Z,19.60
2022-08-20T16:10:21.711Z,19.60
2022-08-20T16:12:49.810Z,19.60
2022-08-20T16:15:29.944Z,19.60
2022-08-20T16:18:07.520Z,19.60
2022-08-20T16:20:48.274Z,19.60
2022-08-20T16:23:20.016Z,19.60
2022-08-20T16:25:55.555Z,19.60
2022-08-20T16:28:24.209Z,19.60
2022-08-20T16:30:54.181Z,19.60
2022-08-20T16:34:02.640Z,19.60
2022-08-20T16:37:15.365Z,19.60
2022-08-20T16:40:28.463Z,19.60
2022-08-20T16:42:57.878Z,19.60
2022-08-20T16:45:32.980Z,19.60
2022-08-20T16:48:02.161Z,19.60
2022-08-20T16:50:34.528Z,19.50
2022-08-20T16:53:01.402Z,19.60
2022-08-20T16:55:28.124Z,19.60
2022-08-20T16:57:54.878Z,19.50
2022-08-20T17:00:35.920Z,19.50
2022-08-20T17:03:33.588Z,19.40
2022-08-20T17:06:37.408Z,19.40
2022-08-20T17:09:13.099Z,19.40
2022-08-20T17:11:39.865Z,19.30
2022-08-20T17:14:10.888Z,19.30
2022-08-20T17:16:41.874Z,19.30
2022-08-20T17:19:15.015Z,19.30
2022-08-20T17:21:41.886Z,19.30
2022-08-20T17:24:19.343Z,19.30
2022-08-20T17:27:10.115Z,19.30
2022-08-20T17:29:51.902Z,19.30
2022-08-20T17:32:24.752Z,19.30
2022-08-20T17:34:53.592Z,19.20
2022-08-20T17:37:33.766Z,19.30
2022-08-20T17:40:07.139Z,19.30
2022-08-20T17:42:33.945Z,19.30
2022-08-20T17:45:08.520Z,19.30
2022-08-20T17:47:36.858Z,19.30
2022-08-20T17:50:12.767Z,19.30
2022-08-20T17:52:43.900Z,19.30
2022-08-20T17:55:10.814Z,19.20
2022-08-20T17:57:38.435Z,19.30
2022-08-20T18:00:08.700Z,19.30
2022-08-20T18:02:36.965Z,19.20
2022-08-20T18:05:07.101Z,19.20
2022-08-20T18:07:56.187Z,19.10
2022-08-20T18:10:24.163Z,19.20
2022-08-20T18:12:57.304Z,19.10
2022-08-20T18:15:35.671Z,19.10
2022-08-20T18:18:12.213Z,19.10
2022-08-20T18:20:49.528Z,19.10
2022-08-20T18:23:20.231Z,19.10
2022-08-20T18:25:53.708Z,19.00
2022-08-20T18:28:31.097Z,19.00
2022-08-20T18:31:02.075Z,19.00
2022-08-20T18:33:38.703Z,19.00
2022-08-20T18:36:23.209Z,19.00
2022-08-20T18:39:00.331Z,18.90
2022-08-20T18:41:35.557Z,18.90
2022-08-20T18:44:12.806Z,18.90
2022-08-20T18:46:52.227Z,18.90
2022-08-20T18:49:27.697Z,18.80
2022-08-20T18:51:54.552Z,18.80
2022-08-20T18:54:25.929Z,18.80
2022-08-20T18:57:02.813Z,18.70
2022-08-20T18:59:29.624Z,18.70
2022-08-20T19:01:56.398Z,18.70
2022-08-20T19:04:31.981Z,18.70
2022-08-20T19:07:03.374Z,18.70
2022-08-20T19:10:28.079Z,18.70
2022-08-20T19:13:16.125Z,18.70
2022-08-20T19:15:50.926Z,18.60
2022-08-20T19:18:21.718Z,18.60
2022-08-20T19:20:55.993Z,18.50
2022-08-20T19:23:25.819Z,18.50
2022-08-20T19:25:56.634Z,18.60
2022-08-20T19:28:28.931Z,18.60
2022-08-20T19:30:55.945Z,18.60
2022-08-20T19:33:27.437Z,18.50
2022-08-20T19:36:07.896Z,18.50
2022-08-20T19:38:34.670Z,18.50
2022-08-20T19:41:11.407Z,18.50
2022-08-20T19:43:44.693Z,18.50
2022-08-20T19:46:11.435Z,18.50
2022-08-20T19:48:41.499Z,18.40
2022-08-20T19:51:26.906Z,18.40
2022-08-20T19:53:53.609Z,18.40
2022-08-20T19:56:22.175Z,18.40
2022-08-20T19:59:06.819Z,18.40
2022-08-20T20:01:33.846Z,18.30
2022-08-20T20:04:03.246Z,18.30
2022-08-20T20:06:31.047Z,18.30
2022-08-20T20:08:58.777Z,18.30
2022-08-20T20:11:37.669Z,18.30
2022-08-20T20:14:06.881Z,18.30
2022-08-20T20:16:33.899Z,18.30
2022-08-20T20:19:24.764Z,18.20
2022-08-20T20:22:00.670Z,18.20
2022-08-20T20:24:29.841Z,18.20
2022-08-20T20:26:56.566Z,18.20
2022-08-20T20:29:28.413Z,18.20
2022-08-20T20:31:58.989Z,18.20
2022-08-20T20:34:30.959Z,18.20
2022-08-20T20:37:10.102Z,18.20
2022-08-20T20:39:37.887Z,18.20
2022-08-20T20:42:07.080Z,18.20
2022-08-20T20:44:37.519Z,18.20
2022-08-20T20:47:07.783Z,18.20
2022-08-20T20:49:48.521Z,18.10
2022-08-20T20:52:28.505Z,18.10
2022-08-20T20:55:13.556Z,18.10
2022-08-20T20:57:40.349Z,18.10
2022-08-20T21:00:13.550Z,18.10
2022-08-20T21:02:40.696Z,18.10
2022-08-20T21:05:07.673Z,18.10
2022-08-20T21:07:34.417Z,18.00
2022-08-20T21:10:01.137Z,18.00
2022-08-20T21:12:27.889Z,17.90
2022-08-20T21:14:54.646Z,17.90
2022-08-20T21:17:22.574Z,18.00
2022-08-20T21:19:50.077Z,18.00
2022-08-20T21:22:16.929Z,18.00
2022-08-20T21:24:44.139Z,18.00
2022-08-20T21:27:12.380Z,18.00
2022-08-20T21:29:39.415Z,18.00
2022-08-20T21:32:06.366Z,18.00
2022-08-20T21:34:33.146Z,18.00
2022-08-20T21:36:59.913Z,17.90
2022-08-20T21:39:27.304Z,17.90
2022-08-20T21:41:55.007Z,17.90
2022-08-20T21:44:27.244Z,17.90
2022-08-20T21:46:56.730Z,17.90
2022-08-20T21:49:23.941Z,17.90
2022-08-20T21:51:50.761Z,17.90
2022-08-20T21:54:17.853Z,17.90
2022-08-20T21:56:47.137Z,17.90
2022-08-20T21:59:14.652Z,17.90
2022-08-20T22:01:42.584Z,17.90
2022-08-20T22:04:09.581Z,17.90
2022-08-20T22:06:36.351Z,17.90
2022-08-20T22:09:03.169Z,17.90
2022-08-20T22:11:30.065Z,17.90
2022-08-20T22:13:56.802Z,17.90
2022-08-20T22:16:23.691Z,17.90
2022-08-20T22:18:50.737Z,17.90
2022-08-20T22:21:19.787Z,17.90
2022-08-20T22:23:46.708Z,17.90
2022-08-20T22:26:13.766Z,17.80
2022-08-20T22:28:40.536Z,17.80
2022-08-20T22:31:07.307Z,17.80
2022-08-20T22:33:34.109Z,17.90
2022-08-20T22:36:01.604Z,17.80
2022-08-20T22:38:28.528Z,17.80
2022-08-20T22:40:55.287Z,17.80
2022-08-20T22:43:22.098Z,17.80
2022-08-20T22:45:50.534Z,17.80
2022-08-20T22:48:18.127Z,17.80
2022-08-20T22:50:45.241Z,17.90
2022-08-20T22:53:12.245Z,17.80
2022-08-20T22:55:39.090Z,17.80
2022-08-20T22:58:06.300Z,17.80
2022-08-20T23:00:33.323Z,17.80
2022-08-20T23:03:00.282Z,17.90
2022-08-20T23:05:28.714Z,17.80
2022-08-20T23:07:56.328Z,17.80
2022-08-20T23:10:23.797Z,17.80
2022-08-20T23:12:50.595Z,17.80
2022-08-20T23:15:17.364Z,17.80
2022-08-20T23:17:44.225Z,17.80
2022-08-20T23:20:12.625Z,17.80
2022-08-20T23:22:39.400Z,17.80
2022-08-20T23:25:07.008Z,17.80
2022-08-20T23:27:34.582Z,17.80
2022-08-20T23:30:01.326Z,17.80
2022-08-20T23:32:28.306Z,17.80
2022-08-20T23:34:55.124Z,17.80
2022-08-20T23:37:22.005Z,17.80
2022-08-20T23:39:49.836Z,17.70
2022-08-20T23:42:16.895Z,17.70
2022-08-20T23:44:43.720Z,17.70
2022-08-20T23:47:10.441Z,17.70
2022-08-20T23:49:37.218Z,17.70
2022-08-20T23:52:04.124Z,17.70
2022-08-20T23:54:31.391Z,17.70
2022-08-20T23:56:58.205Z,17.70
2022-08-20T23:59:25.330Z,17.70
